createdAt,value
2022-12-24T00:01:07.032Z,1.05
2022-12-24T00:03:36.319Z,0.85
2022-12-24T00:06:18.529Z,1.27
2022-12-24T00:08:45.457Z,1.45
2022-12-24T00:11:12.459Z,1.30
2022-12-24T00:13:39.763Z,1.48
2022-12-24T00:16:07.089Z,1.88
2022-12-24T00:18:36.483Z,2.00
2022-12-24T00:21:07.071Z,1.92
2022-12-24T00:23:34.043Z,1.58
2022-12-24T00:26:00.956Z,1.65
2022-12-24T00:28:27.923Z,2.15
2022-12-24T00:30:55.039Z,1.67
2022-12-24T00:33:24.607Z,1.55
2022-12-24T00:35:53.350Z,1.77
2022-12-24T00:38:20.573Z,1.23
2022-12-24T00:40:47.601Z,1.58
2022-12-24T00:43:14.534Z,1.80
2022-12-24T00:45:41.456Z,1.60
2022-12-24T00:48:08.378Z,1.50
2022-12-24T00:50:35.286Z,1.60
2022-12-24T00:53:02.242Z,1.73
2022-12-24T00:55:29.553Z,1.58
2022-12-24T00:57:56.476Z,1.33
2022-12-24T01:00:23.542Z,1.55
2022-12-24T01:02:50.731Z,1.27
2022-12-24T01:05:20.613Z,1.17
2022-12-24T01:07:48.156Z,2.10
2022-12-24T01:10:20.188Z,1.67
2022-12-24T01:12:47.812Z,1.52
2022-12-24T01:15:15.500Z,1.55
2022-12-24T01:17:42.484Z,1.55
2022-12-24T01:20:15.175Z,2.08
2022-12-24T01:22:42.446Z,1.45
2022-12-24T01:25:09.704Z,1.50
2022-12-24T01:27:36.678Z,1.55
2022-12-24T01:30:06.648Z,1.48
2022-12-24T01:32:33.669Z,1.13
2022-12-24T01:35:00.715Z,1.77
2022-12-24T01:37:27.631Z,1.65
2022-12-24T01:40:14.525Z,2.25
2022-12-24T01:43:07.300Z,1.67
2022-12-24T01:45:45.005Z,1.60
2022-12-24T01:48:28.582Z,1.80
2022-12-24T01:51:06.334Z,2.03
2022-12-24T01:53:36.579Z,1.80
2022-12-24T01:56:06.120Z,1.88
2022-12-24T01:58:35.978Z,1.90
2022-12-24T02:01:07.418Z,1.60
2022-12-24T02:03:34.926Z,1.90
2022-12-24T02:06:02.397Z,1.60
2022-12-24T02:08:39.863Z,1.75
2022-12-24T02:11:12.912Z,1.30
2022-12-24T02:13:40.704Z,1.35
2022-12-24T02:16:27.718Z,1.38
2022-12-24T02:19:46.771Z,1.42
2022-12-24T02:22:32.521Z,1.52
2022-12-24T02:25:34.569Z,1.30
2022-12-24T02:28:30.535Z,1.38
2022-12-24T02:31:14.276Z,1.25
2022-12-24T02:34:02.053Z,2.00
2022-12-24T02:37:01.539Z,1.08
2022-12-24T02:39:41.211Z,1.08
2022-12-24T02:42:11.851Z,1.20
2022-12-24T02:44:53.613Z,0.95
2022-12-24T02:47:24.843Z,1.10
2022-12-24T02:49:51.788Z,1.25
2022-12-24T02:52:34.331Z,1.40
2022-12-24T02:55:20.550Z,1.40
2022-12-24T02:58:26.761Z,1.05
2022-12-24T03:01:16.277Z,1.60
2022-12-24T03:04:39.526Z,1.58
2022-12-24T03:07:25.180Z,1.25
2022-12-24T03:10:27.224Z,1.98
2022-12-24T03:13:13.928Z,1.35
2022-12-24T03:15:42.202Z,1.67
2022-12-24T03:18:14.005Z,1.35
2022-12-24T03:20:45.810Z,1.67
2022-12-24T03:23:13.333Z,1.45
2022-12-24T03:25:42.939Z,1.50
2022-12-24T03:28:14.293Z,1.63
2022-12-24T03:30:44.286Z,1.48
2022-12-24T03:33:13.063Z,1.67
2022-12-24T03:35:40.194Z,1.40
2022-12-24T03:38:07.159Z,1.38
2022-12-24T03:40:34.317Z,1.73
2022-12-24T03:43:01.258Z,1.40
2022-12-24T03:45:28.305Z,1.25
2022-12-24T03:47:55.266Z,1.73
2022-12-24T03:50:22.187Z,1.67
2022-12-24T03:52:49.121Z,1.90
2022-12-24T03:55:16.080Z,1.35
2022-12-24T03:57:42.999Z,1.58
2022-12-24T04:00:10.723Z,1.88
2022-12-24T04:02:40.804Z,1.63
2022-12-24T04:05:11.013Z,2.00
2022-12-24T04:07:37.899Z,2.00
2022-12-24T04:10:05.400Z,1.60
2022-12-24T04:12:32.358Z,1.88
2022-12-24T04:14:59.270Z,2.00
2022-12-24T04:17:26.183Z,1.70
2022-12-24T04:19:53.405Z,1.60
2022-12-24T04:22:20.326Z,1.67
2022-12-24T04:24:47.560Z,1.75
2022-12-24T04:27:15.799Z,1.80
2022-12-24T04:29:43.076Z,1.58
2022-12-24T04:32:10.451Z,1.20
2022-12-24T04:34:37.709Z,1.92
2022-12-24T04:37:04.825Z,1.88
2022-12-24T04:39:32.299Z,1.50
2022-12-24T04:41:59.216Z,1.60
2022-12-24T04:44:26.237Z,2.13
2022-12-24T04:46:53.154Z,2.80
2022-12-24T04:49:20.042Z,2.35
2022-12-24T04:51:46.989Z,2.00
2022-12-24T04:54:13.909Z,2.28
2022-12-24T04:56:40.818Z,2.13
2022-12-24T04:59:07.755Z,2.10
2022-12-24T05:01:34.681Z,1.90
2022-12-24T05:04:01.755Z,2.08
2022-12-24T05:06:33.370Z,1.80
2022-12-24T05:09:01.021Z,1.95
2022-12-24T05:11:28.459Z,1.92
2022-12-24T05:13:55.382Z,1.95
2022-12-24T05:16:23.810Z,2.13
2022-12-24T05:18:51.756Z,1.60
2022-12-24T05:21:22.697Z,2.05
2022-12-24T05:26:55.703Z,2.17
2022-12-24T05:29:23.146Z,2.05
2022-12-24T05:31:50.545Z,2.25
2022-12-24T05:34:17.931Z,2.22
2022-12-24T05:36:45.255Z,2.55
2022-12-24T05:39:17.504Z,2.03
2022-12-24T05:41:45.212Z,2.45
2022-12-24T05:44:12.384Z,2.70
2022-12-24T05:46:39.398Z,2.17
2022-12-24T05:49:06.394Z,2.22
2022-12-24T05:51:33.414Z,2.15
2022-12-24T05:54:00.374Z,2.50
2022-12-24T05:56:27.603Z,2.15
2022-12-24T05:58:54.892Z,2.75
2022-12-24T06:01:23.156Z,2.45
2022-12-24T06:03:51.529Z,2.35
2022-12-24T06:06:25.595Z,2.28
2022-12-24T06:08:54.123Z,2.17
2022-12-24T06:11:26.832Z,2.60
2022-12-24T06:13:54.581Z,2.38
2022-12-24T06:16:22.898Z,2.80
2022-12-24T06:18:49.914Z,2.53
2022-12-24T06:21:17.683Z,2.80
2022-12-24T06:23:45.695Z,2.00
2022-12-24T06:26:20.368Z,2.88
2022-12-24T06:28:48.823Z,2.70
2022-12-24T06:31:19.972Z,2.80
2022-12-24T06:33:47.290Z,3.08
2022-12-24T06:36:21.913Z,2.78
2022-12-24T06:38:49.619Z,2.00
2022-12-24T06:41:17.580Z,2.95
2022-12-24T06:43:50.668Z,2.45
2022-12-24T06:46:18.869Z,2.45
2022-12-24T06:48:46.672Z,2.67
2022-12-24T06:51:16.259Z,2.35
2022-12-24T06:53:43.194Z,2.83
2022-12-24T06:56:13.433Z,3.00
2022-12-24T06:58:41.401Z,2.28
2022-12-24T07:01:13.696Z,3.10
2022-12-24T07:03:41.633Z,2.92
2022-12-24T07:06:18.722Z,2.22
2022-12-24T07:08:46.238Z,2.10
2022-12-24T07:11:13.201Z,2.83
2022-12-24T07:13:40.093Z,2.40
2022-12-24T07:16:07.607Z,2.05
2022-12-24T07:18:34.818Z,2.97
2022-12-24T07:21:05.008Z,2.25
2022-12-24T07:23:31.989Z,2.55
2022-12-24T07:26:04.104Z,2.05
2022-12-24T07:28:31.753Z,2.78
2022-12-24T07:31:00.050Z,2.47
2022-12-24T07:33:27.285Z,2.08
2022-12-24T07:36:07.224Z,3.17
2022-12-24T07:38:34.687Z,3.03
2022-12-24T07:41:02.244Z,3.30
2022-12-24T07:43:29.282Z,3.10
2022-12-24T07:45:58.208Z,2.67
2022-12-24T07:48:29.124Z,2.15
2022-12-24T07:50:57.564Z,2.53
2022-12-24T07:53:26.455Z,2.80
2022-12-24T07:55:53.709Z,2.10
2022-12-24T07:58:22.046Z,2.58
2022-12-24T08:00:49.290Z,2.25
2022-12-24T08:03:20.888Z,2.58
2022-12-24T08:05:48.241Z,2.92
2022-12-24T08:08:15.573Z,3.13
2022-12-24T08:10:45.092Z,3.17
2022-12-24T08:13:12.881Z,2.90
2022-12-24T08:15:39.825Z,2.72
2022-12-24T08:18:06.859Z,3.33
2022-12-24T08:20:33.774Z,2.67
2022-12-24T08:23:00.696Z,2.60
2022-12-24T08:25:27.625Z,2.65
2022-12-24T08:27:54.549Z,2.53
2022-12-24T08:30:21.784Z,2.53
2022-12-24T08:32:49.067Z,2.75
2022-12-24T08:35:16.200Z,2.70
2022-12-24T08:37:43.197Z,2.97
2022-12-24T08:40:11.155Z,2.33
2022-12-24T08:42:38.705Z,3.15
2022-12-24T08:45:06.534Z,2.08
2022-12-24T08:47:33.469Z,2.78
2022-12-24T08:50:00.374Z,2.55
2022-12-24T08:52:27.323Z,2.40
2022-12-24T08:54:54.238Z,2.58
2022-12-24T08:57:21.202Z,3.42
2022-12-24T08:59:48.116Z,2.90
2022-12-24T09:02:15.267Z,2.72
2022-12-24T09:04:42.493Z,2.60
2022-12-24T09:07:10.206Z,2.58
2022-12-24T09:09:38.199Z,3.10
2022-12-24T09:12:09.922Z,2.83
2022-12-24T09:14:36.997Z,2.63
2022-12-24T09:17:04.033Z,2.80
2022-12-24T09:19:31.022Z,2.85
2022-12-24T09:21:57.946Z,2.05
2022-12-24T09:24:24.848Z,2.78
2022-12-24T09:26:57.517Z,3.03
2022-12-24T09:29:25.660Z,3.15
2022-12-24T09:31:52.750Z,3.03
2022-12-24T09:34:21.737Z,2.88
2022-12-24T09:36:54.067Z,3.22
2022-12-24T09:39:21.115Z,2.75
2022-12-24T09:42:31.146Z,3.10
2022-12-24T09:45:35.047Z,3.08
2022-12-24T09:48:20.577Z,2.83
2022-12-24T09:51:16.630Z,4.32
2022-12-24T09:53:57.722Z,3.25
2022-12-24T09:59:13.517Z,2.67
2022-12-24T10:01:40.614Z,3.38
2022-12-24T10:04:16.719Z,2.25
2022-12-24T10:07:18.893Z,2.92
2022-12-24T10:09:58.092Z,2.60
2022-12-24T10:13:13.846Z,2.47
2022-12-24T10:15:57.453Z,3.50
2022-12-24T10:19:08.514Z,2.10
2022-12-24T10:22:00.685Z,2.30
2022-12-24T10:25:17.904Z,3.40
2022-12-24T10:27:45.771Z,2.28
2022-12-24T10:30:23.607Z,3.22
2022-12-24T10:32:55.170Z,2.28
2022-12-24T10:35:37.395Z,3.08
2022-12-24T10:38:04.401Z,3.15
2022-12-24T10:40:44.403Z,2.75
2022-12-24T10:43:26.270Z,2.88
2022-12-24T10:46:01.901Z,2.88
2022-12-24T10:48:59.032Z,3.10
2022-12-24T10:52:07.839Z,2.70
2022-12-24T10:54:39.291Z,3.00
2022-12-24T10:57:25.787Z,2.63
2022-12-24T10:59:55.963Z,2.70
2022-12-24T11:02:38.868Z,2.42
2022-12-24T11:05:28.770Z,3.33
2022-12-24T11:08:12.157Z,3.05
2022-12-24T11:10:53.741Z,3.35
2022-12-24T11:13:39.490Z,2.75
2022-12-24T11:16:30.549Z,2.58
2022-12-24T11:19:01.114Z,2.20
2022-12-24T11:21:31.438Z,2.83
2022-12-24T11:24:38.859Z,2.78
2022-12-24T11:27:29.653Z,2.72
2022-12-24T11:30:15.074Z,2.58
2022-12-24T11:32:44.522Z,2.65
2022-12-24T11:35:24.642Z,2.33
2022-12-24T11:38:00.606Z,2.10
2022-12-24T11:40:38.744Z,2.95
2022-12-24T11:43:14.317Z,2.28
2022-12-24T11:45:53.782Z,2.13
2022-12-24T11:48:32.642Z,2.72
2022-12-24T11:51:04.665Z,3.38
2022-12-24T11:53:46.615Z,2.28
2022-12-24T11:56:29.092Z,2.65
2022-12-24T11:59:10.187Z,2.88
2022-12-24T12:01:49.259Z,2.08
2022-12-24T12:04:22.873Z,2.35
2022-12-24T12:07:14.352Z,2.70
2022-12-24T12:09:48.893Z,2.08
2022-12-24T12:12:27.211Z,2.33
2022-12-24T12:15:05.876Z,2.85
2022-12-24T12:18:22.192Z,2.33
2022-12-24T12:20:58.010Z,2.05
2022-12-24T12:24:01.131Z,2.28
2022-12-24T12:26:33.189Z,2.22
2022-12-24T12:29:27.561Z,2.67
2022-12-24T12:32:06.411Z,2.03
2022-12-24T12:34:49.572Z,2.20
2022-12-24T12:37:34.291Z,2.47
2022-12-24T12:40:01.601Z,2.10
2022-12-24T12:42:40.378Z,2.90
2022-12-24T12:45:30.371Z,2.70
2022-12-24T12:48:07.676Z,2.95
2022-12-24T12:50:43.102Z,2.75
2022-12-24T12:53:49.532Z,2.53
2022-12-24T12:56:32.422Z,2.13
2022-12-24T12:59:34.666Z,2.67
2022-12-24T13:02:23.259Z,2.60
2022-12-24T13:05:53.351Z,2.40
2022-12-24T13:09:00.342Z,2.42
2022-12-24T13:12:13.129Z,2.33
2022-12-24T13:15:14.730Z,2.17
2022-12-24T13:18:28.408Z,2.90
2022-12-24T13:20:55.505Z,2.78
2022-12-24T13:23:25.932Z,2.08
2022-12-24T13:25:56.772Z,3.17
2022-12-24T13:31:25.424Z,2.33
2022-12-24T13:33:58.503Z,2.60
2022-12-24T13:36:45.706Z,1.92
2022-12-24T13:39:20.305Z,2.05
2022-12-24T13:41:52.784Z,3.17
2022-12-24T13:44:24.520Z,2.60
2022-12-24T13:47:00.515Z,2.72
2022-12-24T13:49:41.996Z,2.67
2022-12-24T13:52:11.924Z,2.30
2022-12-24T13:54:49.034Z,2.88
2022-12-24T13:57:54.370Z,2.38
2022-12-24T14:00:21.268Z,2.03
2022-12-24T14:03:08.019Z,2.63
2022-12-24T14:05:44.199Z,2.22
2022-12-24T14:08:28.777Z,2.42
2022-12-24T14:11:01.423Z,2.60
2022-12-24T14:13:40.685Z,2.00
2022-12-24T14:16:31.830Z,2.00
2022-12-24T14:19:15.873Z,2.05
2022-12-24T14:22:02.097Z,1.90
2022-12-24T14:24:37.369Z,2.30
2022-12-24T14:27:54.734Z,1.85
2022-12-24T14:30:28.852Z,1.98
2022-12-24T14:32:56.504Z,2.33
2022-12-24T14:35:40.020Z,2.60
2022-12-24T14:38:15.373Z,2.05
2022-12-24T14:40:52.768Z,2.25
2022-12-24T14:43:46.451Z,1.98
2022-12-24T14:46:36.433Z,1.70
2022-12-24T14:49:28.396Z,1.63
2022-12-24T14:52:37.576Z,1.75
2022-12-24T14:55:00.237Z,2.25
2022-12-24T14:57:27.598Z,2.85
2022-12-24T14:59:58.096Z,2.40
2022-12-24T15:02:38.682Z,2.67
2022-12-24T15:05:19.434Z,2.97
2022-12-24T15:08:08.651Z,2.58
2022-12-24T15:10:40.418Z,2.53
2022-12-24T15:13:20.660Z,3.55
2022-12-24T15:15:54.271Z,2.67
2022-12-24T15:18:26.775Z,2.72
2022-12-24T15:21:03.653Z,2.97
2022-12-24T15:23:36.355Z,2.20
2022-12-24T15:26:29.827Z,2.75
2022-12-24T15:29:03.278Z,2.53
2022-12-24T15:31:31.996Z,1.90
2022-12-24T15:34:00.113Z,2.38
2022-12-24T15:36:36.947Z,1.80
2022-12-24T15:39:16.663Z,2.03
2022-12-24T15:42:03.719Z,2.65
2022-12-24T15:44:37.403Z,2.03
2022-12-24T15:47:09.184Z,2.13
2022-12-24T15:49:37.114Z,2.30
2022-12-24T15:52:12.634Z,1.83
2022-12-24T15:54:45.892Z,2.83
2022-12-24T15:57:33.787Z,5.15
2022-12-24T16:00:03.696Z,5.25
2022-12-24T16:05:30.108Z,4.60
2022-12-24T16:08:13.164Z,3.58
2022-12-24T16:10:47.441Z,3.55
2022-12-24T16:13:20.573Z,2.47
2022-12-24T16:16:11.266Z,3.50
2022-12-24T16:18:40.514Z,3.78
2022-12-24T16:21:08.072Z,4.63
2022-12-24T16:23:47.080Z,7.60
2022-12-24T16:26:14.217Z,7.78
2022-12-24T16:28:41.128Z,6.95
2022-12-24T16:31:08.206Z,5.18
2022-12-24T16:33:35.187Z,4.78
2022-12-24T16:36:02.167Z,4.35
2022-12-24T16:38:49.050Z,3.30
2022-12-24T16:41:16.041Z,3.35
2022-12-24T16:43:51.777Z,2.50
2022-12-24T16:46:18.867Z,2.47
2022-12-24T16:48:48.793Z,2.53
2022-12-24T16:51:15.735Z,3.00
2022-12-24T16:53:42.715Z,4.43
2022-12-24T16:56:09.679Z,3.80
2022-12-24T16:58:36.635Z,3.47
2022-12-24T17:01:09.172Z,3.40
2022-12-24T17:03:36.712Z,3.45
2022-12-24T17:06:07.468Z,3.88
2022-12-24T17:08:34.457Z,3.45
2022-12-24T17:11:01.398Z,3.60
2022-12-24T17:13:28.328Z,3.03
2022-12-24T17:15:55.316Z,3.30
2022-12-24T17:18:22.308Z,2.63
2022-12-24T17:21:01.569Z,2.83
2022-12-24T17:23:28.560Z,3.00
2022-12-24T17:25:55.855Z,2.47
2022-12-24T17:28:22.757Z,2.20
2022-12-24T17:30:49.736Z,2.67
2022-12-24T17:33:16.642Z,3.50
2022-12-24T17:35:44.582Z,2.83
2022-12-24T17:38:11.533Z,2.58
2022-12-24T17:40:38.442Z,2.70
2022-12-24T17:43:05.608Z,2.58
2022-12-24T17:45:32.516Z,2.90
2022-12-24T17:47:59.421Z,3.70
2022-12-24T17:50:26.541Z,3.70
2022-12-24T17:52:53.490Z,3.53
2022-12-24T17:55:22.466Z,3.90
2022-12-24T17:57:49.443Z,3.47
2022-12-24T18:00:17.334Z,3.42
2022-12-24T18:02:44.330Z,2.92
2022-12-24T18:05:11.313Z,3.20
2022-12-24T18:07:38.229Z,2.95
2022-12-24T18:10:06.062Z,3.25
2022-12-24T18:12:33.062Z,2.78
2022-12-24T18:15:00.331Z,3.30
2022-12-24T18:17:27.311Z,2.80
2022-12-24T18:19:54.224Z,2.88
2022-12-24T18:22:21.154Z,3.22
2022-12-24T18:24:48.115Z,3.40
2022-12-24T18:27:15.019Z,3.45
2022-12-24T18:29:42.402Z,2.83
2022-12-24T18:32:09.499Z,3.33
2022-12-24T18:34:36.966Z,2.60
2022-12-24T18:37:03.928Z,2.85
2022-12-24T18:39:30.909Z,3.05
2022-12-24T18:41:57.841Z,3.70
2022-12-24T18:44:25.796Z,4.10
2022-12-24T18:46:53.311Z,3.55
2022-12-24T18:49:20.373Z,3.35
2022-12-24T18:51:47.297Z,2.65
2022-12-24T18:54:14.989Z,3.42
2022-12-24T18:56:41.913Z,3.00
2022-12-24T18:59:10.377Z,3.25
2022-12-24T19:01:37.515Z,3.38
2022-12-24T19:04:04.806Z,2.53
2022-12-24T19:06:31.903Z,3.00
2022-12-24T19:09:00.912Z,3.17
2022-12-24T19:11:31.887Z,3.40
2022-12-24T19:13:59.809Z,3.28
2022-12-24T19:16:29.810Z,3.35
2022-12-24T19:18:57.433Z,3.30
2022-12-24T19:21:24.389Z,3.05
2022-12-24T19:23:51.863Z,2.72
2022-12-24T19:26:20.714Z,3.80
2022-12-24T19:28:49.620Z,3.40
2022-12-24T19:31:22.864Z,3.50
2022-12-24T19:33:53.784Z,3.67
2022-12-24T19:38:53.983Z,2.95
2022-12-24T19:41:25.878Z,4.47
2022-12-24T19:43:56.527Z,4.22
2022-12-24T19:46:30.283Z,3.22
2022-12-24T19:49:00.899Z,3.25
2022-12-24T19:51:29.263Z,3.55
2022-12-24T19:53:57.368Z,3.25
2022-12-24T19:56:26.716Z,3.63
2022-12-24T19:58:57.206Z,2.90
2022-12-24T20:01:27.917Z,3.15
2022-12-24T20:06:27.879Z,3.00
2022-12-24T20:09:07.311Z,2.92
2022-12-24T20:11:35.437Z,3.78
2022-12-24T20:14:05.161Z,4.38
2022-12-24T20:16:32.643Z,4.15
2022-12-24T20:19:03.907Z,4.28
2022-12-24T20:21:31.770Z,4.13
2022-12-24T20:23:58.907Z,4.00
2022-12-24T20:26:28.633Z,3.90
2022-12-24T20:28:56.174Z,3.88
2022-12-24T20:31:27.305Z,3.15
2022-12-24T20:33:55.467Z,3.30
2022-12-24T20:36:23.932Z,3.30
2022-12-24T20:38:51.574Z,3.60
2022-12-24T20:41:22.308Z,3.78
2022-12-24T20:43:49.671Z,3.53
2022-12-24T20:46:19.227Z,3.38
2022-12-24T20:48:46.839Z,3.05
2022-12-24T20:51:23.236Z,2.72
2022-12-24T20:53:58.580Z,3.22
2022-12-24T20:56:27.783Z,2.33
2022-12-24T20:58:54.766Z,2.03
2022-12-24T21:01:26.020Z,2.60
2022-12-24T21:03:55.765Z,2.60
2022-12-24T21:06:24.622Z,2.55
2022-12-24T21:08:52.663Z,3.38
2022-12-24T21:11:39.064Z,3.50
2022-12-24T21:14:06.195Z,3.00
2022-12-24T21:16:35.104Z,2.80
2022-12-24T21:19:02.894Z,2.75
2022-12-24T21:21:30.190Z,2.83
2022-12-24T21:23:57.501Z,2.97
2022-12-24T21:26:24.560Z,2.67
2022-12-24T21:28:51.652Z,2.83
2022-12-24T21:31:18.848Z,2.92
2022-12-24T21:33:46.477Z,2.50
2022-12-24T21:36:14.973Z,2.47
2022-12-24T21:38:42.987Z,2.25
2022-12-24T21:41:17.146Z,2.60
2022-12-24T21:43:45.314Z,2.67
2022-12-24T21:46:18.665Z,2.58
2022-12-24T21:49:13.402Z,2.60
2022-12-24T21:51:48.715Z,2.03
2022-12-24T21:54:28.598Z,2.92
2022-12-24T21:57:24.886Z,2.35
2022-12-24T21:59:54.317Z,2.72
2022-12-24T22:02:27.756Z,3.25
2022-12-24T22:04:54.883Z,2.90
2022-12-24T22:07:48.282Z,2.72
2022-12-24T22:10:33.670Z,2.78
2022-12-24T22:13:06.251Z,2.50
2022-12-24T22:15:36.365Z,2.45
2022-12-24T22:18:03.582Z,2.50
2022-12-24T22:20:30.508Z,2.47
2022-12-24T22:22:57.590Z,3.00
2022-12-24T22:25:24.547Z,2.60
2022-12-24T22:27:52.029Z,2.45
2022-12-24T22:30:19.172Z,2.03
2022-12-24T22:32:46.426Z,1.88
2022-12-24T22:35:13.625Z,2.03
2022-12-24T22:37:40.643Z,2.13
2022-12-24T22:40:10.013Z,2.38
2022-12-24T22:42:37.594Z,2.10
2022-12-24T22:45:05.505Z,1.98
2022-12-24T22:47:32.778Z,2.03
2022-12-24T22:50:00.034Z,1.85
2022-12-24T22:52:27.530Z,1.90
2022-12-24T22:54:54.492Z,2.03
2022-12-24T22:57:21.557Z,2.53
2022-12-24T22:59:49.331Z,2.10
2022-12-24T23:02:20.702Z,1.88
2022-12-24T23:04:51.284Z,2.08
2022-12-24T23:07:18.490Z,1.90
2022-12-24T23:09:45.568Z,1.88
2022-12-24T23:12:12.478Z,2.05
2022-12-24T23:14:57.393Z,2.20
2022-12-24T23:17:24.435Z,1.95
2022-12-24T23:19:51.499Z,1.80
2022-12-24T23:22:18.414Z,1.67
2022-12-24T23:24:45.525Z,1.75
2022-12-24T23:27:12.881Z,2.00
2022-12-24T23:29:39.983Z,2.30
2022-12-24T23:32:06.991Z,2.20
2022-12-24T23:34:33.979Z,1.58
2022-12-24T23:37:00.867Z,1.60
2022-12-24T23:39:27.763Z,1.58
2022-12-24T23:41:54.740Z,2.70
2022-12-24T23:44:25.471Z,1.58
2022-12-24T23:46:57.184Z,1.75
2022-12-24T23:49:24.149Z,2.05
2022-12-24T23:51:51.036Z,1.85
2022-12-24T23:54:17.958Z,2.10
2022-12-24T23:56:44.926Z,1.38
2022-12-24T23:59:11.951Z,1.55
